sensor_id;sensor_type;location;lat;lon;timestamp;P1;durP1;ratioP1;P2;durP2;ratioP2
68987;SDS011;56038;46.080;11.116;2023-02-28T00:02:06;6.68;;;4.40;;
68987;SDS011;56038;46.080;11.116;2023-02-28T00:07:09;5.80;;;4.68;;
68987;SDS011;56038;46.080;11.116;2023-02-28T00:12:11;5.20;;;4.30;;
68987;SDS011;56038;46.080;11.116;2023-02-28T00:17:14;5.80;;;4.10;;
68987;SDS011;56038;46.080;11.116;2023-02-28T00:22:18;6.88;;;3.75;;
68987;SDS011;56038;46.080;11.116;2023-02-28T00:27:21;4.55;;;3.92;;
68987;SDS011;56038;46.080;11.116;2023-02-28T00:32:23;4.90;;;3.90;;
68987;SDS011;56038;46.080;11.116;2023-02-28T00:37:26;3.83;;;2.90;;
68987;SDS011;56038;46.080;11.116;2023-02-28T00:42:28;5.38;;;3.65;;
68987;SDS011;56038;46.080;11.116;2023-02-28T00:47:29;8.75;;;4.72;;
68987;SDS011;56038;46.080;11.116;2023-02-28T00:52:33;5.03;;;3.92;;
68987;SDS011;56038;46.080;11.116;2023-02-28T00:57:35;5.05;;;4.18;;
68987;SDS011;56038;46.080;11.116;2023-02-28T01:02:37;7.22;;;4.47;;
68987;SDS011;56038;46.080;11.116;2023-02-28T01:07:40;9.20;;;4.50;;
68987;SDS011;56038;46.080;11.116;2023-02-28T01:12:41;5.43;;;4.00;;
68987;SDS011;56038;46.080;11.116;2023-02-28T01:17:43;7.95;;;4.15;;
68987;SDS011;56038;46.080;11.116;2023-02-28T01:22:46;5.63;;;4.10;;
68987;SDS011;56038;46.080;11.116;2023-02-28T01:27:48;10.98;;;5.28;;
68987;SDS011;56038;46.080;11.116;2023-02-28T01:32:50;7.35;;;4.28;;
68987;SDS011;56038;46.080;11.116;2023-02-28T01:37:54;5.60;;;4.30;;
68987;SDS011;56038;46.080;11.116;2023-02-28T01:42:56;6.07;;;4.82;;
68987;SDS011;56038;46.080;11.116;2023-02-28T01:47:59;7.10;;;4.72;;
68987;SDS011;56038;46.080;11.116;2023-02-28T01:53:06;8.25;;;4.70;;
68987;SDS011;56038;46.080;11.116;2023-02-28T01:58:14;5.65;;;4.07;;
68987;SDS011;56038;46.080;11.116;2023-02-28T02:03:17;6.85;;;4.53;;
68987;SDS011;56038;46.080;11.116;2023-02-28T02:08:23;7.07;;;5.53;;
68987;SDS011;56038;46.080;11.116;2023-02-28T02:13:37;6.22;;;4.25;;
68987;SDS011;56038;46.080;11.116;2023-02-28T02:18:57;8.23;;;4.97;;
68987;SDS011;56038;46.080;11.116;2023-02-28T02:24:22;6.28;;;4.07;;
68987;SDS011;56038;46.080;11.116;2023-02-28T02:35:27;6.03;;;4.60;;
68987;SDS011;56038;46.080;11.116;2023-02-28T02:40:34;5.35;;;3.90;;
68987;SDS011;56038;46.080;11.116;2023-02-28T02:45:40;7.00;;;4.53;;
68987;SDS011;56038;46.080;11.116;2023-02-28T02:50:50;6.65;;;4.80;;
68987;SDS011;56038;46.080;11.116;2023-02-28T02:55:56;7.03;;;5.40;;
68987;SDS011;56038;46.080;11.116;2023-02-28T03:01:01;7.78;;;5.28;;
68987;SDS011;56038;46.080;11.116;2023-02-28T03:06:06;7.80;;;5.15;;
68987;SDS011;56038;46.080;11.116;2023-02-28T03:11:11;8.52;;;4.30;;
68987;SDS011;56038;46.080;11.116;2023-02-28T03:16:20;6.03;;;4.30;;
68987;SDS011;56038;46.080;11.116;2023-02-28T03:21:36;7.15;;;4.57;;
68987;SDS011;56038;46.080;11.116;2023-02-28T03:26:42;5.28;;;4.20;;
68987;SDS011;56038;46.080;11.116;2023-02-28T03:31:48;4.90;;;4.38;;
68987;SDS011;56038;46.080;11.116;2023-02-28T03:36:55;6.60;;;4.35;;
68987;SDS011;56038;46.080;11.116;2023-02-28T03:42:01;5.97;;;4.63;;
68987;SDS011;56038;46.080;11.116;2023-02-28T03:47:08;6.70;;;4.22;;
68987;SDS011;56038;46.080;11.116;2023-02-28T03:52:14;7.07;;;4.60;;
68987;SDS011;56038;46.080;11.116;2023-02-28T03:57:23;7.38;;;5.05;;
68987;SDS011;56038;46.080;11.116;2023-02-28T04:02:31;7.38;;;4.80;;
68987;SDS011;56038;46.080;11.116;2023-02-28T04:07:34;6.55;;;5.55;;
68987;SDS011;56038;46.080;11.116;2023-02-28T04:12:36;6.75;;;4.63;;
68987;SDS011;56038;46.080;11.116;2023-02-28T04:17:38;6.65;;;4.90;;
68987;SDS011;56038;46.080;11.116;2023-02-28T04:22:41;5.43;;;4.53;;
68987;SDS011;56038;46.080;11.116;2023-02-28T04:27:43;6.85;;;4.80;;
68987;SDS011;56038;46.080;11.116;2023-02-28T04:32:44;5.57;;;4.50;;
68987;SDS011;56038;46.080;11.116;2023-02-28T04:37:47;9.18;;;6.20;;
68987;SDS011;56038;46.080;11.116;2023-02-28T04:42:49;8.70;;;6.30;;
68987;SDS011;56038;46.080;11.116;2023-02-28T04:47:51;7.10;;;5.03;;
68987;SDS011;56038;46.080;11.116;2023-02-28T04:52:55;6.20;;;4.72;;
68987;SDS011;56038;46.080;11.116;2023-02-28T04:57:57;9.55;;;6.72;;
68987;SDS011;56038;46.080;11.116;2023-02-28T05:02:59;7.93;;;6.05;;
68987;SDS011;56038;46.080;11.116;2023-02-28T05:08:02;8.77;;;6.15;;
68987;SDS011;56038;46.080;11.116;2023-02-28T05:13:05;7.97;;;6.30;;
68987;SDS011;56038;46.080;11.116;2023-02-28T05:18:07;8.55;;;5.65;;
68987;SDS011;56038;46.080;11.116;2023-02-28T05:23:11;9.43;;;6.20;;
68987;SDS011;56038;46.080;11.116;2023-02-28T05:28:14;10.45;;;5.85;;
68987;SDS011;56038;46.080;11.116;2023-02-28T05:33:16;8.40;;;5.53;;
68987;SDS011;56038;46.080;11.116;2023-02-28T05:38:19;8.85;;;6.57;;
68987;SDS011;56038;46.080;11.116;2023-02-28T05:43:21;8.25;;;5.93;;
68987;SDS011;56038;46.080;11.116;2023-02-28T05:48:23;8.40;;;5.78;;
68987;SDS011;56038;46.080;11.116;2023-02-28T05:53:27;8.75;;;5.65;;
68987;SDS011;56038;46.080;11.116;2023-02-28T05:58:29;8.00;;;5.38;;
68987;SDS011;56038;46.080;11.116;2023-02-28T06:03:31;8.32;;;5.50;;
68987;SDS011;56038;46.080;11.116;2023-02-28T06:08:34;7.75;;;5.47;;
68987;SDS011;56038;46.080;11.116;2023-02-28T06:13:36;7.93;;;5.55;;
68987;SDS011;56038;46.080;11.116;2023-02-28T06:18:38;6.53;;;4.93;;
68987;SDS011;56038;46.080;11.116;2023-02-28T06:23:41;7.70;;;4.07;;
68987;SDS011;56038;46.080;11.116;2023-02-28T06:28:44;9.38;;;6.22;;
68987;SDS011;56038;46.080;11.116;2023-02-28T06:33:46;10.07;;;6.75;;
68987;SDS011;56038;46.080;11.116;2023-02-28T06:38:50;7.70;;;6.38;;
68987;SDS011;56038;46.080;11.116;2023-02-28T06:43:54;8.48;;;6.38;;
68987;SDS011;56038;46.080;11.116;2023-02-28T06:48:57;9.27;;;5.57;;
68987;SDS011;56038;46.080;11.116;2023-02-28T06:54:00;7.65;;;5.38;;
68987;SDS011;56038;46.080;11.116;2023-02-28T06:59:02;12.93;;;8.27;;
68987;SDS011;56038;46.080;11.116;2023-02-28T07:04:05;12.18;;;5.95;;
68987;SDS011;56038;46.080;11.116;2023-02-28T07:09:08;8.40;;;6.07;;
68987;SDS011;56038;46.080;11.116;2023-02-28T07:14:11;11.25;;;7.15;;
68987;SDS011;56038;46.080;11.116;2023-02-28T07:19:12;7.57;;;6.20;;
68987;SDS011;56038;46.080;11.116;2023-02-28T07:24:16;6.95;;;5.55;;
68987;SDS011;56038;46.080;11.116;2023-02-28T07:29:18;11.15;;;7.30;;
68987;SDS011;56038;46.080;11.116;2023-02-28T07:34:20;10.50;;;7.07;;
68987;SDS011;56038;46.080;11.116;2023-02-28T07:39:23;8.98;;;6.28;;
68987;SDS011;56038;46.080;11.116;2023-02-28T07:44:25;11.48;;;7.25;;
68987;SDS011;56038;46.080;11.116;2023-02-28T07:49:27;8.50;;;5.82;;
68987;SDS011;56038;46.080;11.116;2023-02-28T07:54:30;9.60;;;7.43;;
68987;SDS011;56038;46.080;11.116;2023-02-28T07:59:32;9.10;;;5.40;;
68987;SDS011;56038;46.080;11.116;2023-02-28T08:04:34;9.90;;;6.30;;
68987;SDS011;56038;46.080;11.116;2023-02-28T08:09:37;9.35;;;6.72;;
68987;SDS011;56038;46.080;11.116;2023-02-28T08:14:39;10.73;;;7.10;;
68987;SDS011;56038;46.080;11.116;2023-02-28T08:19:41;9.15;;;7.15;;
68987;SDS011;56038;46.080;11.116;2023-02-28T08:24:44;10.27;;;6.53;;
68987;SDS011;56038;46.080;11.116;2023-02-28T08:29:46;8.65;;;5.63;;
68987;SDS011;56038;46.080;11.116;2023-02-28T08:34:47;10.68;;;7.03;;
68987;SDS011;56038;46.080;11.116;2023-02-28T08:39:51;9.40;;;6.35;;
68987;SDS011;56038;46.080;11.116;2023-02-28T08:44:52;9.65;;;6.65;;
68987;SDS011;56038;46.080;11.116;2023-02-28T08:49:54;9.10;;;6.43;;
68987;SDS011;56038;46.080;11.116;2023-02-28T08:54:57;10.80;;;7.18;;
68987;SDS011;56038;46.080;11.116;2023-02-28T08:59:59;7.10;;;5.80;;
68987;SDS011;56038;46.080;11.116;2023-02-28T09:05:04;8.32;;;6.32;;
68987;SDS011;56038;46.080;11.116;2023-02-28T09:10:09;10.57;;;6.97;;
68987;SDS011;56038;46.080;11.116;2023-02-28T09:15:11;9.25;;;6.45;;
68987;SDS011;56038;46.080;11.116;2023-02-28T09:20:13;10.82;;;6.72;;
68987;SDS011;56038;46.080;11.116;2023-02-28T09:25:16;9.05;;;6.60;;
68987;SDS011;56038;46.080;11.116;2023-02-28T09:30:18;12.55;;;7.80;;
68987;SDS011;56038;46.080;11.116;2023-02-28T09:35:20;12.05;;;7.50;;
68987;SDS011;56038;46.080;11.116;2023-02-28T09:40:24;9.98;;;7.43;;
68987;SDS011;56038;46.080;11.116;2023-02-28T09:45:29;9.83;;;7.27;;
68987;SDS011;56038;46.080;11.116;2023-02-28T09:50:35;9.05;;;6.68;;
68987;SDS011;56038;46.080;11.116;2023-02-28T09:55:42;8.95;;;6.15;;
68987;SDS011;56038;46.080;11.116;2023-02-28T10:00:46;11.52;;;7.05;;
68987;SDS011;56038;46.080;11.116;2023-02-28T10:06:02;8.55;;;6.65;;
68987;SDS011;56038;46.080;11.116;2023-02-28T10:11:16;10.63;;;6.90;;
68987;SDS011;56038;46.080;11.116;2023-02-28T10:16:22;9.63;;;7.22;;
68987;SDS011;56038;46.080;11.116;2023-02-28T10:21:30;10.45;;;6.88;;
68987;SDS011;56038;46.080;11.116;2023-02-28T10:26:36;8.30;;;6.32;;
68987;SDS011;56038;46.080;11.116;2023-02-28T10:31:38;8.02;;;6.28;;
68987;SDS011;56038;46.080;11.116;2023-02-28T10:36:41;6.90;;;5.38;;
68987;SDS011;56038;46.080;11.116;2023-02-28T10:41:45;8.23;;;5.78;;
68987;SDS011;56038;46.080;11.116;2023-02-28T10:46:48;7.28;;;5.50;;
68987;SDS011;56038;46.080;11.116;2023-02-28T10:51:51;8.98;;;6.57;;
68987;SDS011;56038;46.080;11.116;2023-02-28T10:57:14;6.63;;;5.35;;
68987;SDS011;56038;46.080;11.116;2023-02-28T11:02:29;7.40;;;6.28;;
68987;SDS011;56038;46.080;11.116;2023-02-28T11:07:33;7.32;;;5.85;;
68987;SDS011;56038;46.080;11.116;2023-02-28T11:12:37;6.13;;;4.97;;
68987;SDS011;56038;46.080;11.116;2023-02-28T11:17:41;6.90;;;5.57;;
68987;SDS011;56038;46.080;11.116;2023-02-28T11:22:44;7.05;;;5.88;;
68987;SDS011;56038;46.080;11.116;2023-02-28T11:27:49;8.13;;;5.70;;
68987;SDS011;56038;46.080;11.116;2023-02-28T11:32:52;15.60;;;11.63;;
68987;SDS011;56038;46.080;11.116;2023-02-28T11:37:54;8.73;;;6.47;;
68987;SDS011;56038;46.080;11.116;2023-02-28T11:43:04;9.23;;;6.75;;
68987;SDS011;56038;46.080;11.116;2023-02-28T11:48:14;8.35;;;5.90;;
68987;SDS011;56038;46.080;11.116;2023-02-28T11:53:23;6.93;;;5.45;;
68987;SDS011;56038;46.080;11.116;2023-02-28T11:58:45;5.20;;;4.68;;
68987;SDS011;56038;46.080;11.116;2023-02-28T12:03:58;5.32;;;4.82;;
68987;SDS011;56038;46.080;11.116;2023-02-28T12:09:13;6.07;;;4.88;;
68987;SDS011;56038;46.080;11.116;2023-02-28T12:14:37;9.43;;;5.90;;
68987;SDS011;56038;46.080;11.116;2023-02-28T12:19:58;5.43;;;4.75;;
68987;SDS011;56038;46.080;11.116;2023-02-28T12:25:29;5.55;;;4.53;;
68987;SDS011;56038;46.080;11.116;2023-02-28T12:30:50;5.05;;;4.45;;
68987;SDS011;56038;46.080;11.116;2023-02-28T12:35:58;4.30;;;3.90;;
68987;SDS011;56038;46.080;11.116;2023-02-28T12:41:02;5.28;;;4.38;;
68987;SDS011;56038;46.080;11.116;2023-02-28T12:46:09;4.70;;;4.22;;
68987;SDS011;56038;46.080;11.116;2023-02-28T12:51:14;4.93;;;4.43;;
68987;SDS011;56038;46.080;11.116;2023-02-28T12:56:19;5.55;;;3.83;;
68987;SDS011;56038;46.080;11.116;2023-02-28T13:01:34;4.88;;;4.32;;
68987;SDS011;56038;46.080;11.116;2023-02-28T13:06:46;4.25;;;3.70;;
68987;SDS011;56038;46.080;11.116;2023-02-28T13:12:01;4.93;;;4.38;;
68987;SDS011;56038;46.080;11.116;2023-02-28T13:17:17;3.60;;;3.30;;
68987;SDS011;56038;46.080;11.116;2023-02-28T13:22:36;8.10;;;3.60;;
68987;SDS011;56038;46.080;11.116;2023-02-28T13:27:40;3.20;;;2.60;;
68987;SDS011;56038;46.080;11.116;2023-02-28T13:32:44;3.60;;;3.30;;
68987;SDS011;56038;46.080;11.116;2023-02-28T13:37:47;3.60;;;3.13;;
68987;SDS011;56038;46.080;11.116;2023-02-28T13:42:51;2.92;;;2.72;;
68987;SDS011;56038;46.080;11.116;2023-02-28T13:47:56;3.42;;;2.80;;
68987;SDS011;56038;46.080;11.116;2023-02-28T13:53:13;2.53;;;2.33;;
68987;SDS011;56038;46.080;11.116;2023-02-28T13:58:41;5.97;;;5.03;;
68987;SDS011;56038;46.080;11.116;2023-02-28T14:04:09;7.72;;;5.45;;
68987;SDS011;56038;46.080;11.116;2023-02-28T14:09:27;5.00;;;4.40;;
68987;SDS011;56038;46.080;11.116;2023-02-28T14:19:58;7.55;;;6.63;;
68987;SDS011;56038;46.080;11.116;2023-02-28T14:25:08;8.05;;;6.40;;
68987;SDS011;56038;46.080;11.116;2023-02-28T14:30:36;7.18;;;6.43;;
68987;SDS011;56038;46.080;11.116;2023-02-28T14:35:56;8.13;;;6.78;;
68987;SDS011;56038;46.080;11.116;2023-02-28T14:41:04;10.27;;;7.97;;
68987;SDS011;56038;46.080;11.116;2023-02-28T14:46:13;11.65;;;9.32;;
68987;SDS011;56038;46.080;11.116;2023-02-28T14:51:21;14.57;;;10.00;;
68987;SDS011;56038;46.080;11.116;2023-02-28T14:56:26;14.00;;;8.48;;
68987;SDS011;56038;46.080;11.116;2023-02-28T15:01:32;13.88;;;9.73;;
68987;SDS011;56038;46.080;11.116;2023-02-28T15:06:35;14.70;;;10.35;;
68987;SDS011;56038;46.080;11.116;2023-02-28T15:11:37;12.07;;;9.93;;
68987;SDS011;56038;46.080;11.116;2023-02-28T15:16:41;15.82;;;11.00;;
68987;SDS011;56038;46.080;11.116;2023-02-28T15:21:47;12.75;;;10.10;;
68987;SDS011;56038;46.080;11.116;2023-02-28T15:26:53;17.70;;;12.38;;
68987;SDS011;56038;46.080;11.116;2023-02-28T15:37:05;16.63;;;11.68;;
68987;SDS011;56038;46.080;11.116;2023-02-28T15:42:27;14.23;;;10.98;;
68987;SDS011;56038;46.080;11.116;2023-02-28T15:47:31;18.38;;;11.10;;
68987;SDS011;56038;46.080;11.116;2023-02-28T15:52:37;16.65;;;11.02;;
68987;SDS011;56038;46.080;11.116;2023-02-28T15:57:40;15.02;;;11.52;;
68987;SDS011;56038;46.080;11.116;2023-02-28T16:02:42;17.55;;;10.40;;
68987;SDS011;56038;46.080;11.116;2023-02-28T16:07:45;15.90;;;11.23;;
68987;SDS011;56038;46.080;11.116;2023-02-28T16:12:48;13.80;;;9.60;;
68987;SDS011;56038;46.080;11.116;2023-02-28T16:17:50;13.50;;;10.93;;
68987;SDS011;56038;46.080;11.116;2023-02-28T16:22:53;18.08;;;11.50;;
68987;SDS011;56038;46.080;11.116;2023-02-28T16:27:56;17.58;;;11.65;;
68987;SDS011;56038;46.080;11.116;2023-02-28T16:33:00;14.80;;;10.77;;
68987;SDS011;56038;46.080;11.116;2023-02-28T16:38:06;14.75;;;10.50;;
68987;SDS011;56038;46.080;11.116;2023-02-28T16:43:08;16.63;;;11.02;;
68987;SDS011;56038;46.080;11.116;2023-02-28T16:48:16;19.40;;;11.95;;
68987;SDS011;56038;46.080;11.116;2023-02-28T16:53:19;19.00;;;12.00;;
68987;SDS011;56038;46.080;11.116;2023-02-28T16:58:21;15.13;;;10.80;;
68987;SDS011;56038;46.080;11.116;2023-02-28T17:03:26;18.13;;;12.20;;
68987;SDS011;56038;46.080;11.116;2023-02-28T17:08:30;17.50;;;12.32;;
68987;SDS011;56038;46.080;11.116;2023-02-28T17:13:32;16.13;;;10.93;;
68987;SDS011;56038;46.080;11.116;2023-02-28T17:18:34;16.17;;;11.30;;
68987;SDS011;56038;46.080;11.116;2023-02-28T17:23:37;16.83;;;11.82;;
68987;SDS011;56038;46.080;11.116;2023-02-28T17:28:42;17.30;;;11.02;;
68987;SDS011;56038;46.080;11.116;2023-02-28T17:33:48;17.00;;;11.65;;
68987;SDS011;56038;46.080;11.116;2023-02-28T17:38:51;15.90;;;10.40;;
68987;SDS011;56038;46.080;11.116;2023-02-28T17:43:55;16.00;;;11.43;;
68987;SDS011;56038;46.080;11.116;2023-02-28T17:48:57;18.95;;;11.00;;
68987;SDS011;56038;46.080;11.116;2023-02-28T17:54:01;16.65;;;10.98;;
68987;SDS011;56038;46.080;11.116;2023-02-28T17:59:03;18.63;;;12.00;;
68987;SDS011;56038;46.080;11.116;2023-02-28T18:04:05;19.60;;;11.30;;
68987;SDS011;56038;46.080;11.116;2023-02-28T18:09:08;14.70;;;10.60;;
68987;SDS011;56038;46.080;11.116;2023-02-28T18:14:10;18.75;;;10.88;;
68987;SDS011;56038;46.080;11.116;2023-02-28T18:19:12;14.70;;;10.75;;
68987;SDS011;56038;46.080;11.116;2023-02-28T18:24:18;23.20;;;12.07;;
68987;SDS011;56038;46.080;11.116;2023-02-28T18:29:22;18.73;;;11.93;;
68987;SDS011;56038;46.080;11.116;2023-02-28T18:34:26;18.80;;;11.68;;
68987;SDS011;56038;46.080;11.116;2023-02-28T18:39:31;16.67;;;10.32;;
68987;SDS011;56038;46.080;11.116;2023-02-28T18:44:32;17.10;;;10.50;;
68987;SDS011;56038;46.080;11.116;2023-02-28T18:49:34;17.40;;;11.82;;
68987;SDS011;56038;46.080;11.116;2023-02-28T18:54:38;14.73;;;9.90;;
68987;SDS011;56038;46.080;11.116;2023-02-28T18:59:40;17.88;;;10.25;;
68987;SDS011;56038;46.080;11.116;2023-02-28T19:04:42;13.63;;;9.52;;
68987;SDS011;56038;46.080;11.116;2023-02-28T19:09:45;12.75;;;8.18;;
68987;SDS011;56038;46.080;11.116;2023-02-28T19:14:47;11.45;;;7.65;;
68987;SDS011;56038;46.080;11.116;2023-02-28T19:19:48;14.07;;;8.93;;
68987;SDS011;56038;46.080;11.116;2023-02-28T19:24:51;10.00;;;8.25;;
68987;SDS011;56038;46.080;11.116;2023-02-28T19:29:53;11.68;;;7.53;;
68987;SDS011;56038;46.080;11.116;2023-02-28T19:34:58;17.33;;;8.93;;
68987;SDS011;56038;46.080;11.116;2023-02-28T19:40:01;15.13;;;9.10;;
68987;SDS011;56038;46.080;11.116;2023-02-28T19:45:06;12.55;;;8.90;;
68987;SDS011;56038;46.080;11.116;2023-02-28T19:50:09;14.43;;;8.45;;
68987;SDS011;56038;46.080;11.116;2023-02-28T19:55:13;12.15;;;8.13;;
68987;SDS011;56038;46.080;11.116;2023-02-28T20:00:15;15.35;;;9.10;;
68987;SDS011;56038;46.080;11.116;2023-02-28T20:05:18;17.00;;;10.77;;
68987;SDS011;56038;46.080;11.116;2023-02-28T20:10:24;14.90;;;10.02;;
68987;SDS011;56038;46.080;11.116;2023-02-28T20:15:26;27.23;;;13.45;;
68987;SDS011;56038;46.080;11.116;2023-02-28T20:20:29;44.78;;;17.50;;
68987;SDS011;56038;46.080;11.116;2023-02-28T20:25:32;24.98;;;12.63;;
68987;SDS011;56038;46.080;11.116;2023-02-28T20:30:34;16.50;;;10.50;;
68987;SDS011;56038;46.080;11.116;2023-02-28T20:35:38;14.82;;;9.15;;
68987;SDS011;56038;46.080;11.116;2023-02-28T20:40:43;15.77;;;8.98;;
68987;SDS011;56038;46.080;11.116;2023-02-28T20:45:49;18.38;;;10.60;;
68987;SDS011;56038;46.080;11.116;2023-02-28T20:55:56;15.13;;;10.25;;
68987;SDS011;56038;46.080;11.116;2023-02-28T21:01:00;11.75;;;8.30;;
68987;SDS011;56038;46.080;11.116;2023-02-28T21:06:03;17.23;;;10.68;;
68987;SDS011;56038;46.080;11.116;2023-02-28T21:11:07;14.52;;;9.73;;
68987;SDS011;56038;46.080;11.116;2023-02-28T21:16:10;16.90;;;10.90;;
68987;SDS011;56038;46.080;11.116;2023-02-28T21:21:15;16.08;;;8.65;;
68987;SDS011;56038;46.080;11.116;2023-02-28T21:26:20;16.60;;;11.05;;
68987;SDS011;56038;46.080;11.116;2023-02-28T21:31:24;13.07;;;8.52;;
68987;SDS011;56038;46.080;11.116;2023-02-28T21:36:29;14.52;;;9.13;;
68987;SDS011;56038;46.080;11.116;2023-02-28T21:41:35;12.90;;;9.48;;
68987;SDS011;56038;46.080;11.116;2023-02-28T21:46:37;17.15;;;8.85;;
68987;SDS011;56038;46.080;11.116;2023-02-28T21:51:39;11.60;;;8.65;;
68987;SDS011;56038;46.080;11.116;2023-02-28T21:56:43;16.67;;;9.55;;
68987;SDS011;56038;46.080;11.116;2023-02-28T22:01:45;11.45;;;7.50;;
68987;SDS011;56038;46.080;11.116;2023-02-28T22:06:51;14.37;;;9.43;;
68987;SDS011;56038;46.080;11.116;2023-02-28T22:11:57;17.47;;;9.73;;
68987;SDS011;56038;46.080;11.116;2023-02-28T22:16:59;12.30;;;7.95;;
68987;SDS011;56038;46.080;11.116;2023-02-28T22:22:01;13.38;;;8.30;;
68987;SDS011;56038;46.080;11.116;2023-02-28T22:27:04;15.45;;;10.48;;
68987;SDS011;56038;46.080;11.116;2023-02-28T22:32:07;15.52;;;8.43;;
68987;SDS011;56038;46.080;11.116;2023-02-28T22:37:10;11.55;;;8.13;;
68987;SDS011;56038;46.080;11.116;2023-02-28T22:42:13;17.15;;;9.93;;
68987;SDS011;56038;46.080;11.116;2023-02-28T22:47:15;13.80;;;8.60;;
68987;SDS011;56038;46.080;11.116;2023-02-28T22:52:17;11.10;;;7.70;;
68987;SDS011;56038;46.080;11.116;2023-02-28T22:57:20;11.77;;;7.78;;
68987;SDS011;56038;46.080;11.116;2023-02-28T23:02:22;12.13;;;7.85;;
68987;SDS011;56038;46.080;11.116;2023-02-28T23:07:23;16.98;;;10.00;;
68987;SDS011;56038;46.080;11.116;2023-02-28T23:12:27;15.52;;;9.55;;
68987;SDS011;56038;46.080;11.116;2023-02-28T23:17:30;14.52;;;9.63;;
68987;SDS011;56038;46.080;11.116;2023-02-28T23:22:32;14.60;;;9.38;;
68987;SDS011;56038;46.080;11.116;2023-02-28T23:27:35;11.73;;;8.50;;
68987;SDS011;56038;46.080;11.116;2023-02-28T23:32:37;15.65;;;8.73;;
68987;SDS011;56038;46.080;11.116;2023-02-28T23:37:38;13.00;;;9.18;;
68987;SDS011;56038;46.080;11.116;2023-02-28T23:42:42;12.25;;;8.23;;
68987;SDS011;56038;46.080;11.116;2023-02-28T23:47:43;16.38;;;9.70;;
68987;SDS011;56038;46.080;11.116;2023-02-28T23:52:45;15.50;;;8.65;;
68987;SDS011;56038;46.080;11.116;2023-02-28T23:57:48;14.55;;;9.02;;
